sensor_id;sensor_type;location;lat;lon;timestamp;temperature;humidity
55719;DHT22;41623;46.104;19.656;2023-10-13T03:12:37;512.30;1382.40
55719;DHT22;41623;46.104;19.656;2023-10-13T03:15:04;512.10;1408.00
55719;DHT22;41623;46.104;19.656;2023-10-13T03:17:43;512.10;1408.00
55719;DHT22;41623;46.104;19.656;2023-10-13T03:20:13;512.00;1408.00
55719;DHT22;41623;46.104;19.656;2023-10-13T03:30:27;512.30;1408.00
55719;DHT22;41623;46.104;19.656;2023-10-13T03:40:40;512.30;1408.00
55719;DHT22;41623;46.104;19.656;2023-10-13T03:43:06;512.00;1382.40
55719;DHT22;41623;46.104;19.656;2023-10-13T03:45:39;487.30;1408.00
55719;DHT22;41623;46.104;19.656;2023-10-13T03:48:15;487.30;1408.00
55719;DHT22;41623;46.104;19.656;2023-10-13T03:51:00;487.30;1433.60
55719;DHT22;41623;46.104;19.656;2023-10-13T03:53:37;487.30;1433.60
55719;DHT22;41623;46.104;19.656;2023-10-13T03:56:18;487.30;1433.60
55719;DHT22;41623;46.104;19.656;2023-10-13T03:58:52;487.30;1433.60
55719;DHT22;41623;46.104;19.656;2023-10-13T04:01:37;487.30;1433.60
55719;DHT22;41623;46.104;19.656;2023-10-13T04:04:09;487.20;1433.60
55719;DHT22;41623;46.104;19.656;2023-10-13T04:06:40;487.20;1433.60
55719;DHT22;41623;46.104;19.656;2023-10-13T04:09:16;487.20;1433.60
55719;DHT22;41623;46.104;19.656;2023-10-13T04:11:58;487.20;1433.60
55719;DHT22;41623;46.104;19.656;2023-10-13T04:14:30;487.20;1433.60
55719;DHT22;41623;46.104;19.656;2023-10-13T04:17:15;487.20;1433.60
55719;DHT22;41623;46.104;19.656;2023-10-13T04:19:41;487.20;1433.60
55719;DHT22;41623;46.104;19.656;2023-10-13T04:22:26;487.20;1433.60
55719;DHT22;41623;46.104;19.656;2023-10-13T04:25:25;487.20;1433.60
55719;DHT22;41623;46.104;19.656;2023-10-13T04:28:10;487.20;1433.60
55719;DHT22;41623;46.104;19.656;2023-10-13T04:30:40;487.20;1433.60
55719;DHT22;41623;46.104;19.656;2023-10-13T04:36:14;487.20;1433.60
55719;DHT22;41623;46.104;19.656;2023-10-13T04:44:18;487.20;1433.60
55719;DHT22;41623;46.104;19.656;2023-10-13T04:46:57;487.20;1433.60
55719;DHT22;41623;46.104;19.656;2023-10-13T04:49:31;487.20;1433.60
55719;DHT22;41623;46.104;19.656;2023-10-13T04:52:03;487.20;1433.60
55719;DHT22;41623;46.104;19.656;2023-10-13T04:54:41;487.30;1433.60
55719;DHT22;41623;46.104;19.656;2023-10-13T04:57:23;487.30;1536.00
55719;DHT22;41623;46.104;19.656;2023-10-13T05:00:03;487.20;1433.60
55719;DHT22;41623;46.104;19.656;2023-10-13T05:02:30;487.30;1433.60
55719;DHT22;41623;46.104;19.656;2023-10-13T05:05:14;487.20;1433.60
55719;DHT22;41623;46.104;19.656;2023-10-13T05:07:40;487.20;1433.60
55719;DHT22;41623;46.104;19.656;2023-10-13T05:10:25;487.10;1433.60
55719;DHT22;41623;46.104;19.656;2023-10-13T05:13:09;487.10;1433.60
55719;DHT22;41623;46.104;19.656;2023-10-13T05:15:53;487.10;1433.60
55719;DHT22;41623;46.104;19.656;2023-10-13T05:18:37;487.10;1433.60
55719;DHT22;41623;46.104;19.656;2023-10-13T05:21:21;487.10;1433.60
55719;DHT22;41623;46.104;19.656;2023-10-13T05:24:07;487.10;1433.60
55719;DHT22;41623;46.104;19.656;2023-10-13T05:26:52;487.10;1433.60
55719;DHT22;41623;46.104;19.656;2023-10-13T05:29:40;487.10;1433.60
55719;DHT22;41623;46.104;19.656;2023-10-13T05:32:25;487.10;1433.60
55719;DHT22;41623;46.104;19.656;2023-10-13T05:35:10;487.10;1433.60
55719;DHT22;41623;46.104;19.656;2023-10-13T05:37:55;487.20;1433.60
55719;DHT22;41623;46.104;19.656;2023-10-13T05:40:39;487.20;1433.60
55719;DHT22;41623;46.104;19.656;2023-10-13T05:43:23;512.00;1433.60
55719;DHT22;41623;46.104;19.656;2023-10-13T05:46:07;487.20;1433.60
55719;DHT22;41623;46.104;19.656;2023-10-13T06:39:52;512.30;1433.60
55719;DHT22;41623;46.104;19.656;2023-10-13T06:42:28;512.20;1638.40
55719;DHT22;41623;46.104;19.656;2023-10-13T06:44:57;487.30;1433.60
55719;DHT22;41623;46.104;19.656;2023-10-13T06:47:24;487.30;1459.20
55719;DHT22;41623;46.104;19.656;2023-10-13T06:49:50;487.30;1459.20
55719;DHT22;41623;46.104;19.656;2023-10-13T06:52:20;487.30;1459.20
55719;DHT22;41623;46.104;19.656;2023-10-13T06:54:50;487.30;1484.80
55719;DHT22;41623;46.104;19.656;2023-10-13T06:57:16;487.30;1484.80
55719;DHT22;41623;46.104;19.656;2023-10-13T06:59:49;487.30;1484.80
55719;DHT22;41623;46.104;19.656;2023-10-13T07:02:15;487.30;1484.80
55719;DHT22;41623;46.104;19.656;2023-10-13T07:04:59;512.00;1484.80
55719;DHT22;41623;46.104;19.656;2023-10-13T07:07:32;512.00;1510.40
55719;DHT22;41623;46.104;19.656;2023-10-13T07:09:58;512.00;1510.40
55719;DHT22;41623;46.104;19.656;2023-10-13T07:12:25;512.00;1510.40
55719;DHT22;41623;46.104;19.656;2023-10-13T07:14:58;512.00;1510.40
55719;DHT22;41623;46.104;19.656;2023-10-13T07:17:46;512.00;1510.40
55719;DHT22;41623;46.104;19.656;2023-10-13T07:20:13;512.00;1510.40
55719;DHT22;41623;46.104;19.656;2023-10-13T07:22:49;512.00;1510.40
55719;DHT22;41623;46.104;19.656;2023-10-13T07:25:27;512.00;1510.40
55719;DHT22;41623;46.104;19.656;2023-10-13T07:28:01;512.00;1510.40
55719;DHT22;41623;46.104;19.656;2023-10-13T07:30:29;512.00;1510.40
55719;DHT22;41623;46.104;19.656;2023-10-13T07:32:56;512.00;1510.40
55719;DHT22;41623;46.104;19.656;2023-10-13T07:35:25;512.00;1510.40
55719;DHT22;41623;46.104;19.656;2023-10-13T07:37:52;512.00;1510.40
55719;DHT22;41623;46.104;19.656;2023-10-13T07:40:22;487.30;1510.40
55719;DHT22;41623;46.104;19.656;2023-10-13T07:42:54;512.00;1510.40
55719;DHT22;41623;46.104;19.656;2023-10-13T07:45:49;512.00;1510.40
55719;DHT22;41623;46.104;19.656;2023-10-13T07:48:24;512.00;1510.40
55719;DHT22;41623;46.104;19.656;2023-10-13T07:53:42;512.00;1510.40
55719;DHT22;41623;46.104;19.656;2023-10-13T07:56:09;512.00;1510.40
55719;DHT22;41623;46.104;19.656;2023-10-13T07:58:38;512.00;1510.40
55719;DHT22;41623;46.104;19.656;2023-10-13T08:01:21;512.00;1510.40
55719;DHT22;41623;46.104;19.656;2023-10-13T08:03:47;512.00;1510.40
55719;DHT22;41623;46.104;19.656;2023-10-13T08:06:16;512.00;1510.40
55719;DHT22;41623;46.104;19.656;2023-10-13T08:08:42;512.00;1510.40
55719;DHT22;41623;46.104;19.656;2023-10-13T08:11:13;512.00;1510.40
55719;DHT22;41623;46.104;19.656;2023-10-13T08:13:52;512.00;1510.40
55719;DHT22;41623;46.104;19.656;2023-10-13T08:16:31;512.00;1510.40
55719;DHT22;41623;46.104;19.656;2023-10-13T08:19:15;512.00;1510.40
55719;DHT22;41623;46.104;19.656;2023-10-13T08:21:43;512.00;1510.40
55719;DHT22;41623;46.104;19.656;2023-10-13T08:24:18;512.00;1510.40
55719;DHT22;41623;46.104;19.656;2023-10-13T08:27:19;512.00;1510.40
55719;DHT22;41623;46.104;19.656;2023-10-13T08:30:01;512.00;1510.40
55719;DHT22;41623;46.104;19.656;2023-10-13T08:32:28;512.00;1510.40
55719;DHT22;41623;46.104;19.656;2023-10-13T08:34:59;512.00;1510.40
55719;DHT22;41623;46.104;19.656;2023-10-13T08:37:34;512.00;1510.40
55719;DHT22;41623;46.104;19.656;2023-10-13T08:40:22;512.00;1510.40
55719;DHT22;41623;46.104;19.656;2023-10-13T08:43:12;512.00;1510.40
55719;DHT22;41623;46.104;19.656;2023-10-13T08:45:42;487.30;1510.40
55719;DHT22;41623;46.104;19.656;2023-10-13T08:48:11;487.30;1510.40
55719;DHT22;41623;46.104;19.656;2023-10-13T08:50:52;512.00;1510.40
55719;DHT22;41623;46.104;19.656;2023-10-13T08:53:28;512.00;1510.40
55719;DHT22;41623;46.104;19.656;2023-10-13T08:56:05;512.00;1510.40
55719;DHT22;41623;46.104;19.656;2023-10-13T08:58:31;512.00;1510.40
55719;DHT22;41623;46.104;19.656;2023-10-13T09:01:16;512.00;1510.40
55719;DHT22;41623;46.104;19.656;2023-10-13T09:04:15;512.00;1510.40
55719;DHT22;41623;46.104;19.656;2023-10-13T09:06:50;512.00;1510.40
55719;DHT22;41623;46.104;19.656;2023-10-13T09:17:10;512.50;1484.80
55719;DHT22;41623;46.104;19.656;2023-10-13T09:22:25;512.50;1484.80
55719;DHT22;41623;46.104;19.656;2023-10-13T09:25:01;512.20;1510.40
55719;DHT22;41623;46.104;19.656;2023-10-13T09:27:32;512.20;1510.40
55719;DHT22;41623;46.104;19.656;2023-10-13T09:30:05;512.10;1510.40
55719;DHT22;41623;46.104;19.656;2023-10-13T09:32:47;512.10;1510.40
55719;DHT22;41623;46.104;19.656;2023-10-13T09:35:19;512.10;1510.40
55719;DHT22;41623;46.104;19.656;2023-10-13T09:37:45;512.10;1510.40
55719;DHT22;41623;46.104;19.656;2023-10-13T09:40:17;512.10;1510.40
55719;DHT22;41623;46.104;19.656;2023-10-13T09:43:01;512.10;1510.40
55719;DHT22;41623;46.104;19.656;2023-10-13T09:45:41;512.00;1510.40
55719;DHT22;41623;46.104;19.656;2023-10-13T09:48:36;512.00;1536.00
55719;DHT22;41623;46.104;19.656;2023-10-13T09:51:12;512.10;1536.00
55719;DHT22;41623;46.104;19.656;2023-10-13T09:53:44;512.00;1536.00
55719;DHT22;41623;46.104;19.656;2023-10-13T09:56:21;512.00;1536.00
55719;DHT22;41623;46.104;19.656;2023-10-13T09:59:13;512.10;1536.00
55719;DHT22;41623;46.104;19.656;2023-10-13T10:01:43;512.10;1536.00
55719;DHT22;41623;46.104;19.656;2023-10-13T10:04:17;512.10;1536.00
55719;DHT22;41623;46.104;19.656;2023-10-13T10:06:57;512.10;1536.00
55719;DHT22;41623;46.104;19.656;2023-10-13T10:09:30;512.10;1536.00
55719;DHT22;41623;46.104;19.656;2023-10-13T10:15:06;512.10;1561.60
55719;DHT22;41623;46.104;19.656;2023-10-13T10:17:42;512.10;1561.60
55719;DHT22;41623;46.104;19.656;2023-10-13T10:20:09;512.10;1561.60
55719;DHT22;41623;46.104;19.656;2023-10-13T10:22:41;512.10;1561.60
55719;DHT22;41623;46.104;19.656;2023-10-13T10:25:13;512.10;1561.60
55719;DHT22;41623;46.104;19.656;2023-10-13T10:27:58;512.20;1561.60
55719;DHT22;41623;46.104;19.656;2023-10-13T10:30:26;512.20;1561.60
55719;DHT22;41623;46.104;19.656;2023-10-13T10:32:55;512.30;1561.60
55719;DHT22;41623;46.104;19.656;2023-10-13T11:47:56;512.60;1536.00
55719;DHT22;41623;46.104;19.656;2023-10-13T11:50:26;512.60;1536.00
55719;DHT22;41623;46.104;19.656;2023-10-13T11:53:01;512.60;1766.40
55719;DHT22;41623;46.104;19.656;2023-10-13T11:55:26;512.50;1561.60
55719;DHT22;41623;46.104;19.656;2023-10-13T11:57:52;512.50;1536.00
55719;DHT22;41623;46.104;19.656;2023-10-13T12:00:18;512.50;1561.60
55719;DHT22;41623;46.104;19.656;2023-10-13T12:03:10;512.50;1561.60
55719;DHT22;41623;46.104;19.656;2023-10-13T12:05:54;512.50;1561.60
55719;DHT22;41623;46.104;19.656;2023-10-13T12:08:45;512.50;1561.60
55719;DHT22;41623;46.104;19.656;2023-10-13T12:11:18;512.50;1561.60
55719;DHT22;41623;46.104;19.656;2023-10-13T12:13:56;512.50;1561.60
55719;DHT22;41623;46.104;19.656;2023-10-13T12:16:24;512.50;1561.60
55719;DHT22;41623;46.104;19.656;2023-10-13T12:19:00;512.50;1561.60
55719;DHT22;41623;46.104;19.656;2023-10-13T12:21:27;512.50;1561.60
55719;DHT22;41623;46.104;19.656;2023-10-13T12:23:54;512.40;1561.60
55719;DHT22;41623;46.104;19.656;2023-10-13T12:26:21;512.40;1561.60
55719;DHT22;41623;46.104;19.656;2023-10-13T12:28:55;512.40;1561.60
55719;DHT22;41623;46.104;19.656;2023-10-13T12:31:32;512.40;1561.60
55719;DHT22;41623;46.104;19.656;2023-10-13T12:33:58;512.40;1561.60
55719;DHT22;41623;46.104;19.656;2023-10-13T12:36:34;512.40;1561.60
55719;DHT22;41623;46.104;19.656;2023-10-13T12:39:19;512.40;1561.60
55719;DHT22;41623;46.104;19.656;2023-10-13T12:42:03;512.40;1561.60
55719;DHT22;41623;46.104;19.656;2023-10-13T12:44:47;512.40;1561.60
55719;DHT22;41623;46.104;19.656;2023-10-13T12:47:31;512.40;1561.60
55719;DHT22;41623;46.104;19.656;2023-10-13T12:50:15;512.40;1561.60
55719;DHT22;41623;46.104;19.656;2023-10-13T12:53:00;512.50;1561.60
55719;DHT22;41623;46.104;19.656;2023-10-13T12:55:25;512.40;1561.60
55719;DHT22;41623;46.104;19.656;2023-10-13T12:57:51;512.40;1561.60
55719;DHT22;41623;46.104;19.656;2023-10-13T13:00:17;512.50;1561.60
55719;DHT22;41623;46.104;19.656;2023-10-13T13:02:47;512.50;1561.60
55719;DHT22;41623;46.104;19.656;2023-10-13T13:05:13;512.50;1561.60
55719;DHT22;41623;46.104;19.656;2023-10-13T13:07:39;512.50;1561.60
55719;DHT22;41623;46.104;19.656;2023-10-13T13:10:13;512.50;1561.60
55719;DHT22;41623;46.104;19.656;2023-10-13T13:12:43;512.50;1561.60
55719;DHT22;41623;46.104;19.656;2023-10-13T13:15:09;512.50;1561.60
55719;DHT22;41623;46.104;19.656;2023-10-13T13:17:44;512.50;1561.60
55719;DHT22;41623;46.104;19.656;2023-10-13T13:20:09;512.50;1561.60
55719;DHT22;41623;46.104;19.656;2023-10-13T13:22:52;512.50;1561.60
55719;DHT22;41623;46.104;19.656;2023-10-13T13:25:19;512.50;1561.60
55719;DHT22;41623;46.104;19.656;2023-10-13T13:27:51;512.60;1715.20
55719;DHT22;41623;46.104;19.656;2023-10-13T13:30:16;512.50;1561.60
55719;DHT22;41623;46.104;19.656;2023-10-13T13:32:45;512.50;1561.60
55719;DHT22;41623;46.104;19.656;2023-10-13T13:35:12;512.50;1561.60
55719;DHT22;41623;46.104;19.656;2023-10-13T13:37:40;512.50;1561.60
55719;DHT22;41623;46.104;19.656;2023-10-13T13:40:08;512.50;1561.60
55719;DHT22;41623;46.104;19.656;2023-10-13T13:42:44;512.50;1561.60
55719;DHT22;41623;46.104;19.656;2023-10-13T13:47:54;512.50;1561.60
55719;DHT22;41623;46.104;19.656;2023-10-13T13:50:24;512.50;1561.60
55719;DHT22;41623;46.104;19.656;2023-10-13T13:52:56;512.50;1561.60
55719;DHT22;41623;46.104;19.656;2023-10-13T13:55:22;512.50;1561.60
55719;DHT22;41623;46.104;19.656;2023-10-13T13:57:51;512.50;1561.60
55719;DHT22;41623;46.104;19.656;2023-10-13T14:00:18;512.50;1561.60
55719;DHT22;41623;46.104;19.656;2023-10-13T14:03:06;512.60;1561.60
55719;DHT22;41623;46.104;19.656;2023-10-13T14:05:47;512.60;1561.60
55719;DHT22;41623;46.104;19.656;2023-10-13T14:08:15;512.50;1561.60
55719;DHT22;41623;46.104;19.656;2023-10-13T14:10:42;512.60;1561.60
55719;DHT22;41623;46.104;19.656;2023-10-13T14:13:37;512.50;1561.60
55719;DHT22;41623;46.104;19.656;2023-10-13T14:16:19;512.50;1561.60
55719;DHT22;41623;46.104;19.656;2023-10-13T14:18:46;512.50;1561.60
55719;DHT22;41623;46.104;19.656;2023-10-13T14:21:13;512.50;1561.60
55719;DHT22;41623;46.104;19.656;2023-10-13T14:23:45;512.60;1561.60
55719;DHT22;41623;46.104;19.656;2023-10-13T14:26:21;512.50;1561.60
55719;DHT22;41623;46.104;19.656;2023-10-13T14:28:51;512.50;1561.60
55719;DHT22;41623;46.104;19.656;2023-10-13T14:31:31;512.50;1561.60
55719;DHT22;41623;46.104;19.656;2023-10-13T14:33:59;512.50;1561.60
55719;DHT22;41623;46.104;19.656;2023-10-13T14:36:26;512.60;1561.60
55719;DHT22;41623;46.104;19.656;2023-10-13T14:38:55;512.60;1561.60
55719;DHT22;41623;46.104;19.656;2023-10-13T14:41:21;512.60;1561.60
55719;DHT22;41623;46.104;19.656;2023-10-13T14:43:47;512.60;1561.60
55719;DHT22;41623;46.104;19.656;2023-10-13T14:46:20;512.60;1561.60
55719;DHT22;41623;46.104;19.656;2023-10-13T14:48:52;512.60;1561.60
55719;DHT22;41623;46.104;19.656;2023-10-13T14:51:18;512.60;1561.60
55719;DHT22;41623;46.104;19.656;2023-10-13T14:53:45;512.60;1561.60
55719;DHT22;41623;46.104;19.656;2023-10-13T14:56:15;512.60;1561.60
55719;DHT22;41623;46.104;19.656;2023-10-13T14:58:42;512.60;1561.60
55719;DHT22;41623;46.104;19.656;2023-10-13T15:01:15;512.60;1561.60
55719;DHT22;41623;46.104;19.656;2023-10-13T15:03:49;512.60;1561.60
55719;DHT22;41623;46.104;19.656;2023-10-13T15:06:24;512.60;1561.60
55719;DHT22;41623;46.104;19.656;2023-10-13T15:08:51;512.60;1561.60
55719;DHT22;41623;46.104;19.656;2023-10-13T15:11:20;512.60;1561.60
55719;DHT22;41623;46.104;19.656;2023-10-13T15:13:46;512.60;1561.60
55719;DHT22;41623;46.104;19.656;2023-10-13T15:16:17;512.60;1561.60
55719;DHT22;41623;46.104;19.656;2023-10-13T15:18:53;512.60;1561.60
55719;DHT22;41623;46.104;19.656;2023-10-13T15:21:23;512.60;1561.60
55719;DHT22;41623;46.104;19.656;2023-10-13T15:23:53;512.60;1536.00
55719;DHT22;41623;46.104;19.656;2023-10-13T15:26:19;512.60;1561.60
55719;DHT22;41623;46.104;19.656;2023-10-13T15:28:50;512.60;1561.60
55719;DHT22;41623;46.104;19.656;2023-10-13T15:31:19;512.60;1536.00
55719;DHT22;41623;46.104;19.656;2023-10-13T15:34:04;512.60;1536.00
55719;DHT22;41623;46.104;19.656;2023-10-13T15:36:44;512.60;1536.00
55719;DHT22;41623;46.104;19.656;2023-10-13T15:39:10;512.60;1536.00
55719;DHT22;41623;46.104;19.656;2023-10-13T15:41:37;512.60;1536.00
55719;DHT22;41623;46.104;19.656;2023-10-13T15:44:10;512.60;1536.00
55719;DHT22;41623;46.104;19.656;2023-10-13T15:46:37;512.60;1536.00
55719;DHT22;41623;46.104;19.656;2023-10-13T15:49:03;512.50;1536.00
55719;DHT22;41623;46.104;19.656;2023-10-13T15:51:32;512.50;1536.00
55719;DHT22;41623;46.104;19.656;2023-10-13T15:54:07;512.50;1536.00
55719;DHT22;41623;46.104;19.656;2023-10-13T15:56:42;512.50;1536.00
55719;DHT22;41623;46.104;19.656;2023-10-13T15:59:09;512.50;1536.00
55719;DHT22;41623;46.104;19.656;2023-10-13T16:01:35;512.50;1536.00
55719;DHT22;41623;46.104;19.656;2023-10-13T16:04:01;512.50;1536.00
55719;DHT22;41623;46.104;19.656;2023-10-13T16:06:37;512.50;1536.00
55719;DHT22;41623;46.104;19.656;2023-10-13T16:09:03;512.50;1536.00
55719;DHT22;41623;46.104;19.656;2023-10-13T16:11:29;512.50;1536.00
55719;DHT22;41623;46.104;19.656;2023-10-13T16:13:55;512.50;1536.00
55719;DHT22;41623;46.104;19.656;2023-10-13T16:16:22;512.50;1536.00
55719;DHT22;41623;46.104;19.656;2023-10-13T16:18:51;512.50;1510.40
55719;DHT22;41623;46.104;19.656;2023-10-13T16:21:18;512.50;1536.00
55719;DHT22;41623;46.104;19.656;2023-10-13T16:23:45;512.50;1510.40
55719;DHT22;41623;46.104;19.656;2023-10-13T16:26:13;512.50;1510.40
55719;DHT22;41623;46.104;19.656;2023-10-13T16:28:39;512.50;1510.40
55719;DHT22;41623;46.104;19.656;2023-10-13T16:31:06;512.50;1510.40
55719;DHT22;41623;46.104;19.656;2023-10-13T16:33:36;512.50;1510.40
55719;DHT22;41623;46.104;19.656;2023-10-13T16:36:02;512.50;1510.40
55719;DHT22;41623;46.104;19.656;2023-10-13T16:38:35;512.50;1510.40
55719;DHT22;41623;46.104;19.656;2023-10-13T16:41:02;512.50;1510.40
55719;DHT22;41623;46.104;19.656;2023-10-13T16:43:32;512.50;1510.40
55719;DHT22;41623;46.104;19.656;2023-10-13T16:45:59;512.50;1510.40
55719;DHT22;41623;46.104;19.656;2023-10-13T16:48:25;512.50;1510.40
55719;DHT22;41623;46.104;19.656;2023-10-13T16:50:52;512.50;1510.40
55719;DHT22;41623;46.104;19.656;2023-10-13T16:53:23;512.50;1510.40
55719;DHT22;41623;46.104;19.656;2023-10-13T16:55:50;512.50;1510.40
55719;DHT22;41623;46.104;19.656;2023-10-13T16:58:16;512.50;1510.40
55719;DHT22;41623;46.104;19.656;2023-10-13T17:00:42;512.50;1510.40
55719;DHT22;41623;46.104;19.656;2023-10-13T17:03:17;512.50;1510.40
55719;DHT22;41623;46.104;19.656;2023-10-13T17:05:50;512.50;1510.40
55719;DHT22;41623;46.104;19.656;2023-10-13T17:08:16;512.50;1510.40
55719;DHT22;41623;46.104;19.656;2023-10-13T17:10:42;512.50;1510.40
55719;DHT22;41623;46.104;19.656;2023-10-13T17:13:07;512.50;1510.40
55719;DHT22;41623;46.104;19.656;2023-10-13T17:15:37;512.50;1510.40
55719;DHT22;41623;46.104;19.656;2023-10-13T17:18:04;512.50;1510.40
55719;DHT22;41623;46.104;19.656;2023-10-13T17:20:38;512.50;1510.40
55719;DHT22;41623;46.104;19.656;2023-10-13T17:23:08;512.50;1510.40
55719;DHT22;41623;46.104;19.656;2023-10-13T17:25:35;512.50;1510.40
55719;DHT22;41623;46.104;19.656;2023-10-13T17:28:02;512.50;1510.40
55719;DHT22;41623;46.104;19.656;2023-10-13T17:30:38;512.50;1510.40
55719;DHT22;41623;46.104;19.656;2023-10-13T17:33:05;512.50;1510.40
55719;DHT22;41623;46.104;19.656;2023-10-13T17:35:37;512.50;1510.40
55719;DHT22;41623;46.104;19.656;2023-10-13T17:38:04;512.50;1510.40
55719;DHT22;41623;46.104;19.656;2023-10-13T17:40:30;512.50;1510.40
55719;DHT22;41623;46.104;19.656;2023-10-13T17:42:57;512.50;1510.40
55719;DHT22;41623;46.104;19.656;2023-10-13T17:45:23;512.50;1510.40
55719;DHT22;41623;46.104;19.656;2023-10-13T17:47:50;512.50;1510.40
55719;DHT22;41623;46.104;19.656;2023-10-13T17:50:17;512.60;1510.40
55719;DHT22;41623;46.104;19.656;2023-10-13T17:52:45;512.60;1484.80
55719;DHT22;41623;46.104;19.656;2023-10-13T17:55:12;512.60;1510.40
55719;DHT22;41623;46.104;19.656;2023-10-13T17:57:40;512.60;1484.80
55719;DHT22;41623;46.104;19.656;2023-10-13T18:00:07;512.60;1484.80
55719;DHT22;41623;46.104;19.656;2023-10-13T18:02:39;512.60;1484.80
55719;DHT22;41623;46.104;19.656;2023-10-13T18:05:11;512.60;1484.80
55719;DHT22;41623;46.104;19.656;2023-10-13T18:07:41;512.60;1484.80
55719;DHT22;41623;46.104;19.656;2023-10-13T18:10:11;512.60;1484.80
55719;DHT22;41623;46.104;19.656;2023-10-13T18:12:40;512.60;1484.80
55719;DHT22;41623;46.104;19.656;2023-10-13T18:15:07;512.60;1484.80
55719;DHT22;41623;46.104;19.656;2023-10-13T18:17:40;512.60;1484.80
55719;DHT22;41623;46.104;19.656;2023-10-13T18:20:07;512.60;1484.80
55719;DHT22;41623;46.104;19.656;2023-10-13T18:22:36;512.60;1484.80
55719;DHT22;41623;46.104;19.656;2023-10-13T18:25:06;512.60;1484.80
55719;DHT22;41623;46.104;19.656;2023-10-13T18:27:41;512.60;1484.80
55719;DHT22;41623;46.104;19.656;2023-10-13T18:30:10;512.60;1484.80
55719;DHT22;41623;46.104;19.656;2023-10-13T18:32:44;512.60;1484.80
55719;DHT22;41623;46.104;19.656;2023-10-13T18:35:16;512.60;1484.80
55719;DHT22;41623;46.104;19.656;2023-10-13T18:37:44;512.60;1484.80
55719;DHT22;41623;46.104;19.656;2023-10-13T18:40:14;512.60;1484.80
55719;DHT22;41623;46.104;19.656;2023-10-13T18:42:42;512.60;1484.80
55719;DHT22;41623;46.104;19.656;2023-10-13T18:45:19;512.60;1484.80
55719;DHT22;41623;46.104;19.656;2023-10-13T18:47:46;512.60;1484.80
55719;DHT22;41623;46.104;19.656;2023-10-13T18:50:11;512.60;1484.80
55719;DHT22;41623;46.104;19.656;2023-10-13T18:52:41;512.60;1484.80
55719;DHT22;41623;46.104;19.656;2023-10-13T18:55:07;512.60;1484.80
55719;DHT22;41623;46.104;19.656;2023-10-13T18:57:33;512.60;1484.80
55719;DHT22;41623;46.104;19.656;2023-10-13T18:59:59;512.60;1484.80
55719;DHT22;41623;46.104;19.656;2023-10-13T19:02:25;512.60;1484.80
55719;DHT22;41623;46.104;19.656;2023-10-13T19:04:54;512.60;1484.80
55719;DHT22;41623;46.104;19.656;2023-10-13T19:07:21;512.60;1484.80
55719;DHT22;41623;46.104;19.656;2023-10-13T19:09:47;512.60;1484.80
55719;DHT22;41623;46.104;19.656;2023-10-13T19:12:14;512.60;1484.80
55719;DHT22;41623;46.104;19.656;2023-10-13T19:14:39;512.60;1484.80
55719;DHT22;41623;46.104;19.656;2023-10-13T19:17:05;512.60;1484.80
55719;DHT22;41623;46.104;19.656;2023-10-13T19:19:31;512.60;1484.80
55719;DHT22;41623;46.104;19.656;2023-10-13T19:22:00;512.60;1484.80
55719;DHT22;41623;46.104;19.656;2023-10-13T19:24:26;512.60;1484.80
55719;DHT22;41623;46.104;19.656;2023-10-13T19:26:54;512.60;1484.80
55719;DHT22;41623;46.104;19.656;2023-10-13T19:29:20;512.60;1484.80
55719;DHT22;41623;46.104;19.656;2023-10-13T19:31:46;512.50;1484.80
55719;DHT22;41623;46.104;19.656;2023-10-13T19:34:12;512.50;1484.80
55719;DHT22;41623;46.104;19.656;2023-10-13T19:36:43;512.50;1484.80
55719;DHT22;41623;46.104;19.656;2023-10-13T19:39:09;512.50;1484.80
55719;DHT22;41623;46.104;19.656;2023-10-13T19:41:44;512.50;1484.80
55719;DHT22;41623;46.104;19.656;2023-10-13T19:44:10;512.50;1484.80
55719;DHT22;41623;46.104;19.656;2023-10-13T19:46:40;512.60;1484.80
55719;DHT22;41623;46.104;19.656;2023-10-13T19:49:06;512.50;1484.80
55719;DHT22;41623;46.104;19.656;2023-10-13T19:51:33;512.60;1484.80
55719;DHT22;41623;46.104;19.656;2023-10-13T19:54:01;512.60;1484.80
55719;DHT22;41623;46.104;19.656;2023-10-13T19:56:28;512.60;1484.80
55719;DHT22;41623;46.104;19.656;2023-10-13T19:58:54;512.50;1484.80
55719;DHT22;41623;46.104;19.656;2023-10-13T20:01:21;512.60;1484.80
55719;DHT22;41623;46.104;19.656;2023-10-13T20:03:52;512.60;1484.80
55719;DHT22;41623;46.104;19.656;2023-10-13T20:06:27;512.60;1484.80
55719;DHT22;41623;46.104;19.656;2023-10-13T20:08:54;512.60;1484.80
55719;DHT22;41623;46.104;19.656;2023-10-13T20:11:24;512.50;1484.80
55719;DHT22;41623;46.104;19.656;2023-10-13T20:13:51;512.60;1484.80
55719;DHT22;41623;46.104;19.656;2023-10-13T20:16:19;512.60;1484.80
55719;DHT22;41623;46.104;19.656;2023-10-13T20:18:50;512.50;1484.80
55719;DHT22;41623;46.104;19.656;2023-10-13T20:21:23;512.50;1484.80
55719;DHT22;41623;46.104;19.656;2023-10-13T20:23:56;512.50;1484.80
55719;DHT22;41623;46.104;19.656;2023-10-13T20:26:29;512.50;1484.80
55719;DHT22;41623;46.104;19.656;2023-10-13T20:28:55;512.50;1484.80
55719;DHT22;41623;46.104;19.656;2023-10-13T20:31:21;512.50;1484.80
55719;DHT22;41623;46.104;19.656;2023-10-13T20:33:47;512.60;1484.80
55719;DHT22;41623;46.104;19.656;2023-10-13T20:36:13;512.50;1484.80
55719;DHT22;41623;46.104;19.656;2023-10-13T20:38:44;512.50;1484.80
55719;DHT22;41623;46.104;19.656;2023-10-13T20:41:16;512.50;1484.80
55719;DHT22;41623;46.104;19.656;2023-10-13T20:43:51;512.50;1484.80
55719;DHT22;41623;46.104;19.656;2023-10-13T20:46:18;512.50;1484.80
55719;DHT22;41623;46.104;19.656;2023-10-13T20:48:45;512.50;1484.80
55719;DHT22;41623;46.104;19.656;2023-10-13T20:51:13;512.60;1484.80
55719;DHT22;41623;46.104;19.656;2023-10-13T20:53:45;512.60;1459.20
55719;DHT22;41623;46.104;19.656;2023-10-13T20:56:12;512.60;1459.20
55719;DHT22;41623;46.104;19.656;2023-10-13T20:58:41;512.60;1459.20
55719;DHT22;41623;46.104;19.656;2023-10-13T21:01:13;512.50;1459.20
55719;DHT22;41623;46.104;19.656;2023-10-13T21:03:39;512.50;1459.20